Time;durP1;ratioP1;P1;durP2;ratioP2;P2;SDS_P1;SDS_P2;PMS_P1;PMS_P2;Temp;Humidity;BMP_temperature;BMP_pressure;BME280_temperature;BME280_humidity;BME280_pressure;Samples;Min_cycle;Max_cycle;Signal;HPM_P1;HPM_P2
2022/05/04 04:22:32;;;;;;;23.55;11.68;;;;;;;7.73;100.00;100248.41;5108833;27;20189;-76
2022/05/04 04:24:58;;;;;;;23.02;13.23;;;;;;;7.78;100.00;100248.78;5109196;28;20395;-74
2022/05/04 04:27:23;;;;;;;21.90;12.45;;;;;;;7.79;100.00;100255.75;5108856;28;20063;-74
2022/05/04 04:29:49;;;;;;;22.63;13.32;;;;;;;7.82;100.00;100252.81;5108895;28;20507;-74
2022/05/04 04:32:14;;;;;;;21.92;13.40;;;;;;;7.84;100.00;100256.13;5108633;28;20040;-75
2022/05/04 04:34:40;;;;;;;24.23;14.15;;;;;;;7.87;100.00;100254.97;5083485;22;20075;-78
2022/05/04 04:37:05;;;;;;;26.35;13.52;;;;;;;7.91;100.00;100258.16;5068511;28;20048;-78
2022/05/04 04:39:31;;;;;;;20.85;13.30;;;;;;;8.00;100.00;100263.34;5070084;28;20053;-79
2022/05/04 04:41:56;;;;;;;23.63;13.05;;;;;;;8.02;100.00;100256.06;5068753;28;20082;-79
2022/05/04 04:44:22;;;;;;;20.65;12.40;;;;;;;8.10;100.00;100272.03;5069565;28;20116;-80
2022/05/04 04:46:47;;;;;;;19.30;13.10;;;;;;;8.14;100.00;100264.59;5069169;28;20033;-80
2022/05/04 04:49:13;;;;;;;33.58;17.88;;;;;;;8.23;100.00;100268.97;5067593;28;20044;-78
2022/05/04 04:51:38;;;;;;;23.83;13.95;;;;;;;8.23;100.00;100261.00;5068248;28;20218;-79
2022/05/04 04:54:04;;;;;;;21.88;13.63;;;;;;;8.36;100.00;100273.88;5070890;28;20035;-80
2022/05/04 04:56:30;;;;;;;21.83;14.15;;;;;;;8.46;100.00;100276.41;5069035;28;20051;-79
2022/05/04 04:58:56;;;;;;;23.90;12.00;;;;;;;8.52;100.00;100284.56;5067372;28;20043;-80
2022/05/04 05:01:21;;;;;;;23.02;13.57;;;;;;;8.56;100.00;100280.59;5067519;28;20045;-79
2022/05/04 05:03:47;;;;;;;22.70;13.30;;;;;;;8.64;100.00;100280.63;5069509;28;20039;-78
2022/05/04 05:06:12;;;;;;;17.88;12.45;;;;;;;8.65;100.00;100281.47;5066743;28;20036;-79
2022/05/04 05:08:41;;;;;;;18.30;11.80;;;;;;;8.70;100.00;100281.81;5068859;28;20044;-81
2022/05/04 05:11:06;;;;;;;16.63;11.00;;;;;;;8.76;100.00;100285.66;5071643;28;20413;-81
2022/05/04 05:13:32;;;;;;;18.75;11.52;;;;;;;8.81;100.00;100278.88;5086933;28;20082;-81
2022/05/04 05:16:09;;;;;;;16.75;12.13;;;;;;;8.83;100.00;100279.53;5071004;28;20040;-82
2022/05/04 05:18:36;;;;;;;22.85;13.52;;;;;;;8.87;100.00;100286.22;5072289;28;20107;-83
2022/05/04 05:21:02;;;;;;;19.42;12.93;;;;;;;8.89;100.00;100273.59;5070382;28;20046;-82
2022/05/04 05:23:28;;;;;;;21.23;13.02;;;;;;;8.91;100.00;100282.22;5071582;28;20504;-82
2022/05/04 05:25:53;;;;;;;23.92;13.93;;;;;;;8.96;100.00;100281.75;5070111;28;20032;-78
2022/05/04 05:28:19;;;;;;;20.55;12.25;;;;;;;8.95;100.00;100282.75;5067794;28;20037;-78
2022/05/04 05:30:45;;;;;;;18.25;12.85;;;;;;;8.98;100.00;100283.22;5067433;28;20032;-78
2022/05/04 05:33:10;;;;;;;18.42;12.60;;;;;;;8.98;100.00;100283.22;5057632;28;20501;-78
2022/05/04 05:35:37;;;;;;;20.30;13.95;;;;;;;9.03;100.00;100285.41;5053101;28;20513;-78
2022/05/04 05:38:02;;;;;;;18.95;12.98;;;;;;;9.05;100.00;100291.38;5054275;28;20033;-77
2022/05/04 05:40:28;;;;;;;22.73;14.68;;;;;;;9.08;100.00;100295.56;5054291;28;20060;-78
2022/05/04 05:42:53;;;;;;;19.73;13.82;;;;;;;9.11;100.00;100297.88;5069366;28;20041;-78
2022/05/04 05:45:19;;;;;;;27.45;16.00;;;;;;;9.13;100.00;100287.94;5036221;28;20041;-78
2022/05/04 05:47:44;;;;;;;27.63;16.88;;;;;;;9.18;100.00;100301.56;5054088;28;20037;-78
2022/05/04 05:50:11;;;;;;;25.63;16.42;;;;;;;9.20;100.00;100295.09;5054227;28;20040;-78
2022/05/04 05:52:36;;;;;;;24.10;16.98;;;;;;;9.21;100.00;100296.75;5052504;28;20131;-79
2022/05/04 05:55:02;;;;;;;21.88;15.45;;;;;;;9.28;100.00;100304.91;5054561;28;20112;-78
2022/05/04 05:57:28;;;;;;;22.73;15.25;;;;;;;9.33;100.00;100309.75;5053919;28;20466;-79
2022/05/04 05:59:53;;;;;;;21.00;15.40;;;;;;;9.35;100.00;100302.44;5053904;28;20048;-79
2022/05/04 06:02:19;;;;;;;23.15;15.90;;;;;;;9.43;100.00;100307.75;5055098;28;20037;-82
2022/05/04 06:04:45;;;;;;;25.50;16.70;;;;;;;9.52;100.00;100306.78;5054727;28;20482;-79
2022/05/04 06:07:11;;;;;;;22.55;16.40;;;;;;;9.59;100.00;100310.44;5054707;28;20072;-82
2022/05/04 06:09:36;;;;;;;25.70;16.40;;;;;;;9.69;100.00;100310.25;5058085;28;20037;-82
2022/05/04 06:12:03;;;;;;;27.33;16.60;;;;;;;9.81;100.00;100306.28;5056867;28;20041;-81
2022/05/04 06:14:28;;;;;;;21.67;15.80;;;;;;;9.94;100.00;100308.44;5056643;28;20060;-80
2022/05/04 06:16:54;;;;;;;25.42;15.73;;;;;;;10.03;100.00;100308.25;5058510;28;20044;-81
2022/05/04 06:19:19;;;;;;;21.15;14.77;;;;;;;10.13;100.00;100307.25;5055761;28;20037;-80
2022/05/04 06:21:45;;;;;;;20.45;14.32;;;;;;;10.21;100.00;100305.41;5055845;28;20075;-81
2022/05/04 06:24:10;;;;;;;20.00;13.30;;;;;;;10.24;100.00;100297.13;5055928;28;20112;-77
2022/05/04 06:26:36;;;;;;;22.45;14.02;;;;;;;10.40;100.00;100312.22;5052331;28;20055;-80
2022/05/04 06:29:01;;;;;;;18.85;13.20;;;;;;;10.47;100.00;100304.38;5053843;28;20504;-79
2022/05/04 06:34:11;;;;;;;17.67;13.55;;;;;;;10.71;100.00;100308.78;5054839;28;20571;-81
2022/05/04 06:36:39;;;;;;;18.33;12.52;;;;;;;10.78;100.00;100312.44;5053748;28;20062;-80
2022/05/04 06:39:06;;;;;;;18.55;12.02;;;;;;;10.92;100.00;100319.69;5055042;28;20036;-78
2022/05/04 06:41:33;;;;;;;21.10;13.50;;;;;;;11.06;100.00;100313.63;5052608;28;20032;-74
2022/05/04 06:43:58;;;;;;;17.02;12.65;;;;;;;11.19;100.00;100314.88;5052011;28;20079;-74
2022/05/04 06:46:24;;;;;;;17.38;10.98;;;;;;;11.29;100.00;100319.00;5052978;28;20571;-73
2022/05/04 06:48:49;;;;;;;16.08;10.50;;;;;;;11.47;100.00;100321.38;5052866;28;20036;-73
2022/05/04 06:51:15;;;;;;;17.58;11.55;;;;;;;11.55;100.00;100321.31;5052738;28;20041;-73
2022/05/04 06:53:40;;;;;;;17.73;10.60;;;;;;;11.65;100.00;100313.91;5052288;28;20075;-73
2022/05/04 06:56:06;;;;;;;13.85;9.68;;;;;;;11.80;100.00;100318.44;5051586;28;20036;-74
2022/05/04 06:58:31;;;;;;;15.75;11.15;;;;;;;11.93;100.00;100318.72;5052486;28;20385;-73
2022/05/04 07:00:57;;;;;;;13.45;9.98;;;;;;;11.99;100.00;100323.31;5052546;28;20111;-73
2022/05/04 07:03:22;;;;;;;14.57;10.68;;;;;;;12.10;100.00;100328.25;5050875;28;20044;-73
2022/05/04 07:05:49;;;;;;;15.35;10.73;;;;;;;12.21;100.00;100330.47;5052459;28;20115;-73
2022/05/04 07:08:14;;;;;;;15.32;10.15;;;;;;;12.28;100.00;100330.59;5052371;28;20111;-74
2022/05/04 07:10:40;;;;;;;15.18;10.85;;;;;;;12.34;100.00;100327.19;5052373;28;20179;-74
2022/05/04 07:13:06;;;;;;;15.60;11.80;;;;;;;12.42;100.00;100335.09;5067450;28;20048;-75
2022/05/04 07:15:32;;;;;;;18.10;11.93;;;;;;;12.56;100.00;100329.94;5052378;28;20493;-74
2022/05/04 07:17:58;;;;;;;17.98;12.32;;;;;;;12.64;100.00;100333.34;5052379;28;20047;-73
2022/05/04 07:20:24;;;;;;;16.00;11.80;;;;;;;12.75;100.00;100330.22;5052259;28;20049;-74
2022/05/04 07:22:50;;;;;;;18.90;12.25;;;;;;;12.87;100.00;100327.09;5051854;28;20040;-72
2022/05/04 07:25:16;;;;;;;23.23;12.07;;;;;;;12.93;99.00;100327.19;5052141;28;20044;-72
2022/05/04 07:27:41;;;;;;;16.88;11.88;;;;;;;13.04;100.00;100333.91;5050804;28;20051;-74
2022/05/04 07:30:07;;;;;;;15.13;11.80;;;;;;;13.16;95.01;100340.41;5052180;28;20060;-74
2022/05/04 07:32:33;;;;;;;14.65;10.30;;;;;;;13.37;89.58;100338.84;5051669;28;20040;-73
2022/05/04 07:34:59;;;;;;;17.52;11.88;;;;;;;13.42;89.62;100333.72;5052062;28;20040;-74
2022/05/04 07:37:25;;;;;;;17.73;11.85;;;;;;;13.45;93.17;100341.38;5050752;28;20064;-72
2022/05/04 07:42:35;;;;;;;16.67;12.10;;;;;;;13.56;88.31;100335.50;5051556;28;20037;-74
2022/05/04 07:45:03;;;;;;;20.13;12.02;;;;;;;13.68;91.80;100339.34;5051742;28;20036;-70
2022/05/04 07:47:34;;;;;;;18.67;11.80;;;;;;;13.78;88.72;100334.50;5051686;28;20116;-72
2022/05/04 07:49:59;;;;;;;15.45;11.20;;;;;;;13.79;86.20;100335.34;5051747;28;20117;-73
2022/05/04 07:52:25;;;;;;;18.35;11.85;;;;;;;13.87;84.49;100334.38;5051338;28;20044;-74
2022/05/04 07:54:52;;;;;;;20.13;11.80;;;;;;;13.97;86.59;100332.22;5051488;28;20051;-72
2022/05/04 07:57:18;;;;;;;14.27;11.82;;;;;;;14.15;83.37;100331.72;5051664;28;20067;-73
2022/05/04 08:04:16;;;;;;;16.02;12.30;;;;;;;14.34;86.94;100331.91;5051735;28;20079;-74
2022/05/04 08:05:14;;;;;;;16.95;11.63;;;;;;;14.74;84.01;100342.88;5051469;28;20041;-71
2022/05/04 08:07:39;;;;;;;16.17;11.02;;;;;;;14.92;81.90;100335.13;5051488;28;20059;-74
2022/05/04 08:10:05;;;;;;;15.93;11.25;;;;;;;15.27;83.59;100342.28;5051412;28;20051;-73
2022/05/04 08:12:33;;;;;;;15.80;12.32;;;;;;;15.44;88.10;100343.56;5051117;28;20049;-73
2022/05/04 08:14:59;;;;;;;16.20;11.52;;;;;;;15.58;83.04;100349.78;5050218;28;20032;-71
2022/05/04 08:17:24;;;;;;;18.92;11.63;;;;;;;15.59;76.59;100346.94;5051478;28;20056;-73
2022/05/04 08:19:50;;;;;;;16.10;11.25;;;;;;;15.46;71.60;100339.66;5051349;28;20397;-72
2022/05/04 08:22:15;;;;;;;14.88;10.63;;;;;;;15.64;76.00;100351.69;5051014;28;20120;-71
2022/05/04 08:24:40;;;;;;;14.35;11.60;;;;;;;15.78;73.46;100348.03;5051447;28;20055;-72
2022/05/04 08:27:06;;;;;;;13.02;10.85;;;;;;;15.77;72.95;100354.41;5051399;28;20047;-74
2022/05/04 08:29:32;;;;;;;17.15;11.32;;;;;;;15.82;77.23;100354.63;5050020;28;20037;-73
2022/05/04 08:31:59;;;;;;;16.48;11.55;;;;;;;15.84;76.26;100349.03;5050865;28;20037;-75
2022/05/04 08:34:24;;;;;;;15.68;11.80;;;;;;;15.95;82.40;100351.13;5051087;28;20124;-74
2022/05/04 08:36:50;;;;;;;18.10;12.65;;;;;;;15.99;82.69;100355.88;5051294;28;20484;-73
2022/05/04 08:39:15;;;;;;;12.55;11.00;;;;;;;15.98;81.74;100346.19;5051319;28;20126;-72
2022/05/04 08:41:42;;;;;;;17.67;10.75;;;;;;;16.08;77.47;100356.50;5050870;28;20086;-75
2022/05/04 08:44:10;;;;;;;16.33;11.63;;;;;;;16.13;79.61;100362.09;5051228;28;20158;-73
2022/05/04 08:46:44;;;;;;;15.27;11.00;;;;;;;16.25;76.86;100351.56;5051099;28;20098;-72
2022/05/04 08:49:12;;;;;;;16.08;11.38;;;;;;;16.11;75.44;100355.28;5051116;28;20676;-72
2022/05/04 08:51:39;;;;;;;16.20;11.73;;;;;;;16.09;77.42;100346.56;5050849;28;20040;-75
2022/05/04 08:54:07;;;;;;;14.37;11.27;;;;;;;16.10;74.16;100346.38;5050955;28;20040;-72
2022/05/04 08:56:35;;;;;;;18.55;11.73;;;;;;;16.11;74.29;100349.91;5051173;28;20041;-73
2022/05/04 08:59:02;;;;;;;13.38;11.27;;;;;;;16.28;77.28;100341.19;5051015;28;20037;-73
2022/05/04 09:01:28;;;;;;;14.20;11.32;;;;;;;16.49;73.12;100337.44;5066882;28;20158;-75
2022/05/04 09:03:54;;;;;;;16.67;11.93;;;;;;;16.67;72.24;100344.03;5050821;28;20029;-74
2022/05/04 09:06:28;;;;;;;18.00;11.43;;;;;;;16.85;72.31;100344.22;5051185;28;20033;-75
2022/05/04 09:09:03;;;;;;;14.70;11.63;;;;;;;17.21;70.30;100340.13;5053935;28;20037;-74
2022/05/04 09:11:29;;;;;;;16.67;11.80;;;;;;;17.21;68.98;100340.97;5054635;28;20393;-74
2022/05/04 09:13:55;;;;;;;12.93;10.68;;;;;;;17.43;68.55;100332.59;5054590;28;20033;-75
2022/05/04 09:16:28;;;;;;;14.75;11.73;;;;;;;17.27;69.74;100332.03;5054513;28;20416;-74
2022/05/04 09:18:54;;;;;;;17.52;11.32;;;;;;;17.57;74.71;100334.97;5054665;28;20048;-74
2022/05/04 09:21:22;;;;;;;15.65;10.68;;;;;;;17.61;69.00;100328.13;5054475;28;20032;-74
2022/05/04 09:23:52;;;;;;;14.43;11.65;;;;;;;17.35;67.86;100336.38;5054300;28;20098;-74
2022/05/04 09:26:22;;;;;;;16.02;11.05;;;;;;;17.18;69.20;100337.91;5054537;28;20125;-74
2022/05/04 09:28:56;;;;;;;17.40;11.15;;;;;;;17.04;69.27;100327.19;5054724;28;20041;-74
2022/05/04 09:31:26;;;;;;;13.60;10.98;;;;;;;17.12;71.88;100333.38;5054917;28;20094;-76
2022/05/04 09:33:57;;;;;;;15.15;11.05;;;;;;;16.90;70.45;100336.34;5054038;28;20086;-75
2022/05/04 09:36:37;;;;;;;17.48;11.38;;;;;;;16.77;74.09;100339.91;5053054;28;20041;-75
2022/05/04 09:45:12;;;;;;;13.30;11.07;;;;;;;16.45;79.08;100332.72;5053974;28;20502;-75
2022/05/04 09:47:45;;;;;;;21.85;12.48;;;;;;;16.30;79.20;100335.63;5052822;28;20056;-74
2022/05/04 09:50:12;;;;;;;18.00;12.15;;;;;;;16.20;79.90;100344.09;5053974;28;20039;-75
2022/05/04 09:52:42;;;;;;;15.27;12.50;;;;;;;16.07;85.86;100345.97;5053590;28;20029;-74
2022/05/04 09:55:18;;;;;;;17.45;12.77;;;;;;;16.10;86.45;100343.69;5052600;28;20045;-74
2022/05/04 09:57:44;;;;;;;16.85;13.13;;;;;;;16.16;89.03;100342.84;5053851;28;20072;-75
2022/05/04 10:00:12;;;;;;;18.38;14.15;;;;;;;16.34;89.12;100336.84;5069249;28;20056;-75
2022/05/04 10:02:37;;;;;;;;;;;;;;;16.44;88.17;100348.03;5069290;28;20040;-72
2022/05/04 10:05:04;;;;;;;18.80;14.20;;;;;;;16.55;89.05;100333.91;5053665;28;19916;-75
2022/05/04 10:07:31;;;;;;;16.77;13.32;;;;;;;16.68;87.89;100337.63;5053906;28;20536;-75
2022/05/04 10:09:57;;;;;;;19.05;14.50;;;;;;;16.72;89.24;100339.72;5054037;28;20043;-75
2022/05/04 10:12:26;;;;;;;20.17;13.95;;;;;;;16.94;85.69;100326.81;5053842;28;20041;-75
2022/05/04 10:14:54;;;;;;;19.25;14.32;;;;;;;17.57;85.32;100332.28;5052287;28;20124;-74
2022/05/04 10:17:25;;;;;;;18.33;13.98;;;;;;;18.18;85.60;100328.94;5053592;28;20044;-73
2022/05/04 10:20:12;;;;;;;15.70;13.13;;;;;;;18.82;72.17;100323.38;5052204;28;20045;-75
2022/05/04 10:22:43;;;;;;;14.80;12.63;;;;;;;19.59;69.45;100319.06;5053124;28;20424;-72
2022/05/04 10:25:12;;;;;;;16.73;12.25;;;;;;;19.84;63.70;100312.66;5052682;28;20041;-74
2022/05/04 10:27:42;;;;;;;14.32;11.80;;;;;;;20.52;62.56;100309.41;5053541;28;20506;-71
2022/05/04 10:33:03;;;;;;;13.07;11.55;;;;;;;21.38;59.38;100294.94;5052729;28;20656;-73
2022/05/04 10:35:31;;;;;;;11.90;10.50;;;;;;;21.73;56.90;100296.66;5053687;28;20041;-72
2022/05/04 10:38:00;;;;;;;13.23;10.55;;;;;;;22.15;54.36;100291.66;5053218;28;20037;-72
2022/05/04 10:40:29;;;;;;;13.85;10.95;;;;;;;21.25;60.15;100291.69;5053481;28;20041;-72
2022/05/04 10:43:01;;;;;;;13.70;10.90;;;;;;;21.71;56.55;100284.41;5052745;28;20058;-72
2022/05/04 10:45:35;;;;;;;14.95;11.38;;;;;;;22.70;52.58;100285.38;5051753;28;20389;-75
2022/05/04 10:48:16;;;;;;;12.88;10.48;;;;;;;22.43;53.19;100274.44;5051744;28;20494;-75
2022/05/04 10:51:20;;;;;;;12.23;10.43;;;;;;;21.39;58.28;100268.69;5052823;28;20389;-73
2022/05/04 10:53:49;;;;;;;13.40;10.93;;;;;;;22.91;56.57;100274.78;5052461;28;20037;-75
2022/05/04 10:56:23;;;;;;;12.40;9.95;;;;;;;22.94;57.20;100268.84;5052770;28;20525;-75
2022/05/04 10:58:52;;;;;;;11.55;9.65;;;;;;;23.39;55.69;100271.22;5052642;28;20037;-74
2022/05/04 11:01:32;;;;;;;12.73;10.50;;;;;;;23.94;47.56;100264.66;5052646;28;20036;-75
2022/05/04 11:04:09;;;;;;;12.43;9.98;;;;;;;23.92;48.66;100264.09;5052483;28;20053;-73
2022/05/04 11:06:34;;;;;;;;;;;;;;;24.03;49.09;100262.28;5052920;28;20440;-73
2022/05/04 11:09:20;;;;;;;12.88;9.65;;;;;;;24.41;53.13;100255.75;5052677;28;19920;-73
2022/05/04 11:11:51;;;;;;;13.82;10.00;;;;;;;23.54;47.90;100259.69;5050830;28;20044;-72
2022/05/04 11:14:22;;;;;;;10.18;9.07;;;;;;;24.19;50.27;100258.59;5052252;28;20450;-72
2022/05/04 11:16:50;;;;;;;11.95;9.50;;;;;;;23.63;45.95;100247.28;5052432;28;20032;-73
2022/05/04 11:19:16;;;;;;;15.05;10.02;;;;;;;23.24;46.15;100249.34;5052311;28;20094;-72
2022/05/04 11:21:42;;;;;;;11.43;9.57;;;;;;;23.67;48.99;100247.56;5051961;28;20040;-71
2022/05/04 11:24:10;;;;;;;12.02;9.15;;;;;;;24.10;51.49;100241.91;5052238;28;20037;-72
2022/05/04 11:26:36;;;;;;;13.00;8.95;;;;;;;23.81;48.07;100237.91;5052160;28;20040;-71
2022/05/04 11:29:15;;;;;;;15.65;9.55;;;;;;;24.80;46.22;100228.13;5052073;28;20379;-73
2022/05/04 11:31:47;;;;;;;10.57;8.65;;;;;;;25.26;49.35;100236.44;5051170;28;20491;-71
2022/05/04 11:34:17;;;;;;;12.38;8.80;;;;;;;24.59;45.92;100235.41;5051964;28;20045;-72
2022/05/04 11:36:45;;;;;;;10.82;8.40;;;;;;;25.34;45.80;100227.72;5051962;28;20120;-73
2022/05/04 11:39:17;;;;;;;12.13;8.77;;;;;;;25.48;42.09;100231.53;5051924;28;20037;-72
2022/05/04 11:41:45;;;;;;;10.50;8.82;;;;;;;25.59;41.97;100225.00;5050439;28;20041;-73
2022/05/04 11:44:12;;;;;;;8.88;7.85;;;;;;;25.86;41.59;100223.94;5051757;28;20655;-74
2022/05/04 11:46:39;;;;;;;11.52;8.95;;;;;;;25.29;42.08;100209.44;5052093;28;20068;-73
2022/05/04 11:49:07;;;;;;;13.07;8.50;;;;;;;25.85;41.88;100216.84;5051848;28;20040;-74
2022/05/04 11:51:35;;;;;;;10.43;9.35;;;;;;;25.11;40.05;100208.06;5051504;28;20573;-73
2022/05/04 11:54:00;;;;;;;;;;;;;;;24.43;41.61;100203.75;5050690;28;20039;-73
2022/05/04 11:56:26;;;;;;;14.10;10.40;;;;;;;23.49;43.84;100210.72;5051707;28;20270;-73
2022/05/04 11:58:52;;;;;;;12.50;10.15;;;;;;;24.13;42.44;100205.22;5051615;28;20125;-73
2022/05/04 12:01:18;;;;;;;10.13;8.05;;;;;;;24.92;42.57;100203.38;5051620;28;20084;-73
2022/05/04 12:03:44;;;;;;;11.38;8.82;;;;;;;24.15;43.21;100207.66;5051181;28;20080;-73
2022/05/04 12:06:11;;;;;;;11.63;8.65;;;;;;;25.68;41.35;100206.16;5051542;28;20099;-73
2022/05/04 12:08:41;;;;;;;15.60;9.55;;;;;;;25.97;42.43;100209.19;5051551;28;20102;-73
2022/05/04 12:11:08;;;;;;;15.82;8.82;;;;;;;25.75;41.99;100209.47;5051399;28;20444;-73
2022/05/04 12:13:38;;;;;;;10.20;7.53;;;;;;;26.54;39.07;100207.94;5050019;28;20363;-73
2022/05/04 12:16:07;;;;;;;7.40;6.38;;;;;;;26.63;37.46;100200.78;5051340;28;20040;-73
2022/05/04 12:18:34;;;;;;;7.68;6.38;;;;;;;26.55;41.61;100209.56;5051461;28;20554;-73
2022/05/04 12:21:15;;;;;;;10.18;8.30;;;;;;;27.18;40.69;100209.78;5051601;28;20436;-73
2022/05/04 12:23:44;;;;;;;8.68;6.63;;;;;;;27.76;35.21;100209.06;5051073;28;20383;-73
2022/05/04 12:26:12;;;;;;;9.88;7.40;;;;;;;27.86;33.81;100206.25;5051316;28;20417;-73
2022/05/04 12:28:42;;;;;;;8.77;7.22;;;;;;;27.59;36.09;100204.00;5049944;28;20037;-73
2022/05/04 12:33:56;;;;;;;9.73;7.15;;;;;;;26.87;36.19;100195.47;5050979;28;20527;-73
2022/05/04 12:36:24;;;;;;;9.77;7.32;;;;;;;26.97;33.85;100200.88;5051226;28;20045;-73
2022/05/04 12:38:52;;;;;;;8.20;6.55;;;;;;;26.88;33.93;100193.56;5051252;28;20033;-74
2022/05/04 12:41:20;;;;;;;7.53;5.75;;;;;;;27.35;34.96;100183.97;5050126;28;20060;-73
2022/05/04 12:43:47;;;;;;;7.65;6.20;;;;;;;28.05;32.63;100187.16;5053781;28;20044;-73
2022/05/04 12:46:16;;;;;;;;;;;;;;;27.32;35.60;100188.06;5055613;28;20098;-73
2022/05/04 12:48:43;;;;;;;7.05;5.90;;;;;;;27.53;36.58;100177.81;5055156;28;19957;-74
2022/05/04 12:51:10;;;;;;;10.02;7.43;;;;;;;26.80;36.96;100173.13;5053699;28;20131;-74
2022/05/04 12:53:39;;;;;;;9.63;7.90;;;;;;;26.10;37.69;100164.13;5054756;28;20187;-73
2022/05/04 12:58:51;;;;;;;8.10;6.50;;;;;;;26.81;37.25;100157.53;5055037;28;20029;-73
2022/05/04 13:01:21;;;;;;;8.27;6.28;;;;;;;27.41;37.67;100150.00;5054662;28;20048;-73
2022/05/04 13:03:46;;;;;;;9.65;6.55;;;;;;;27.09;37.72;100153.28;5054541;28;20040;-73
2022/05/04 13:06:12;;;;;;;8.80;6.43;;;;;;;26.83;37.24;100149.88;5053685;28;20589;-72
2022/05/04 13:08:37;;;;;;;8.43;6.50;;;;;;;26.82;35.90;100138.13;5054796;28;20044;-73
2022/05/04 13:11:04;;;;;;;7.82;7.03;;;;;;;27.39;35.79;100138.53;5054931;28;20041;-74
2022/05/04 13:13:30;;;;;;;11.07;6.85;;;;;;;27.69;35.21;100135.53;5054255;28;20044;-74
2022/05/04 13:15:56;;;;;;;8.73;7.15;;;;;;;26.48;37.25;100127.13;5054556;28;20048;-75
2022/05/04 13:18:22;;;;;;;7.82;6.63;;;;;;;27.35;36.57;100134.75;5054681;28;20406;-74
2022/05/04 13:20:49;;;;;;;8.18;5.57;;;;;;;28.49;36.34;100128.56;5054589;28;20036;-74
2022/05/04 13:23:15;;;;;;;7.35;6.20;;;;;;;28.56;34.91;100126.28;5054122;28;20052;-74
2022/05/04 13:25:41;;;;;;;11.13;6.13;;;;;;;28.79;33.33;100124.59;5054481;28;20045;-73
2022/05/04 13:28:06;;;;;;;10.52;6.72;;;;;;;27.54;35.22;100127.47;5054390;28;20372;-73
2022/05/04 13:30:32;;;;;;;12.45;6.88;;;;;;;27.28;34.54;100130.41;5054219;28;20052;-73
2022/05/04 13:32:58;;;;;;;7.90;6.93;;;;;;;26.08;38.90;100134.38;5053567;28;20401;-73
2022/05/04 13:35:24;;;;;;;8.18;6.50;;;;;;;25.80;36.77;100135.00;5054607;28;20041;-72
2022/05/04 13:37:50;;;;;;;6.20;5.28;;;;;;;25.41;37.46;100130.94;5054233;28;20039;-73
2022/05/04 13:40:15;;;;;;;8.98;6.78;;;;;;;24.51;38.22;100127.81;5054174;28;20204;-73
2022/05/04 13:42:42;;;;;;;9.13;6.40;;;;;;;24.21;39.96;100122.25;5054156;28;20097;-74
2022/05/04 13:45:11;;;;;;;8.27;6.93;;;;;;;24.24;41.31;100121.72;5053894;28;20059;-73
2022/05/04 13:47:37;;;;;;;7.70;6.25;;;;;;;24.16;40.49;100116.78;5052628;28;20037;-73
2022/05/04 13:50:04;;;;;;;10.43;6.28;;;;;;;23.72;40.11;100114.38;5054041;28;20029;-74
2022/05/04 13:55:14;;;;;;;9.68;6.68;;;;;;;23.39;41.80;100110.88;5053638;28;20555;-73
2022/05/04 13:57:40;;;;;;;9.85;6.38;;;;;;;23.08;41.47;100115.25;5054011;28;20028;-74
2022/05/04 14:00:07;;;;;;;11.77;6.25;;;;;;;23.22;42.25;100121.09;5053899;28;20528;-73
2022/05/04 14:02:37;;;;;;;11.13;6.75;;;;;;;23.16;42.84;100113.97;5053479;28;20606;-74
2022/05/04 14:05:03;;;;;;;9.50;6.07;;;;;;;23.24;43.61;100110.78;5053615;28;20040;-74
2022/05/04 14:07:29;;;;;;;7.85;6.50;;;;;;;23.25;43.12;100109.69;5052237;28;20151;-73
2022/05/04 14:09:54;;;;;;;6.97;6.28;;;;;;;23.13;43.52;100100.91;5053335;28;20036;-74
2022/05/04 14:12:20;;;;;;;10.82;6.90;;;;;;;23.20;41.79;100096.06;5053074;28;20426;-74
2022/05/04 14:15:04;;;;;;;9.07;6.05;;;;;;;23.13;44.33;100103.63;5053433;28;20402;-74
2022/05/04 14:17:30;;;;;;;8.25;6.57;;;;;;;23.01;44.34;100091.00;5053641;28;20041;-74
2022/05/04 14:19:55;;;;;;;8.20;6.50;;;;;;;22.99;44.68;100085.03;5053426;28;20040;-74
2022/05/04 14:22:21;;;;;;;8.90;6.53;;;;;;;22.74;45.88;100076.63;5052993;28;20091;-73
2022/05/04 14:24:47;;;;;;;11.20;7.75;;;;;;;21.97;42.94;100066.81;5053220;28;20071;-73
2022/05/04 14:27:12;;;;;;;9.13;7.10;;;;;;;22.12;44.52;100074.34;5053323;28;20435;-74
2022/05/04 14:29:38;;;;;;;9.02;7.35;;;;;;;22.24;43.46;100075.03;5053242;28;20045;-73
2022/05/04 14:32:04;;;;;;;11.02;7.57;;;;;;;22.01;42.77;100072.56;5052756;28;20044;-73
2022/05/04 14:34:30;;;;;;;9.30;7.63;;;;;;;22.09;43.24;100081.09;5052954;28;20033;-74
2022/05/04 14:36:55;;;;;;;8.57;6.85;;;;;;;22.14;45.39;100083.06;5053079;28;20130;-74
2022/05/04 14:39:22;;;;;;;9.20;7.25;;;;;;;21.98;44.29;100079.31;5052902;28;20048;-74
2022/05/04 14:41:47;;;;;;;9.82;7.75;;;;;;;21.94;43.47;100078.16;5052816;28;20037;-74
2022/05/04 14:44:13;;;;;;;7.38;6.68;;;;;;;21.95;43.21;100085.22;5053020;28;20047;-73
2022/05/04 14:46:39;;;;;;;10.80;7.50;;;;;;;21.93;44.07;100087.38;5053092;28;20033;-73
2022/05/04 14:49:04;;;;;;;8.90;6.55;;;;;;;22.23;43.54;100086.94;5053120;28;20043;-74
2022/05/04 14:51:30;;;;;;;7.53;6.72;;;;;;;22.07;42.07;100093.25;5052556;28;20049;-73
2022/05/04 14:53:55;;;;;;;11.15;7.65;;;;;;;22.32;41.88;100090.88;5052556;28;20043;-74
2022/05/04 14:56:21;;;;;;;8.70;7.18;;;;;;;22.56;41.97;100091.41;5052841;28;20037;-73
2022/05/04 14:58:48;;;;;;;7.18;5.85;;;;;;;22.55;44.58;100105.22;5052771;28;20382;-72
2022/05/04 15:01:14;;;;;;;6.40;5.57;;;;;;;22.81;42.11;100098.13;5052647;28;20041;-74
2022/05/04 15:06:25;;;;;;;8.40;6.35;;;;;;;23.01;39.46;100096.44;5051549;28;20664;-71
2022/05/04 15:08:51;;;;;;;10.13;6.25;;;;;;;22.84;39.62;100093.03;5052247;28;20501;-71
2022/05/04 15:11:17;;;;;;;8.88;7.35;;;;;;;23.04;39.06;100089.69;5051128;28;20029;-71
2022/05/04 15:13:43;;;;;;;10.80;5.18;;;;;;;22.95;40.43;100094.78;5052029;28;20055;-71
2022/05/04 15:16:09;;;;;;;6.57;5.13;;;;;;;23.16;38.30;100090.34;5050952;28;20043;-70
2022/05/04 15:18:35;;;;;;;7.18;5.03;;;;;;;23.06;37.36;100101.13;5052177;28;20120;-71
2022/05/04 15:21:01;;;;;;;6.05;4.75;;;;;;;22.82;35.80;100089.75;5052234;28;20376;-70
2022/05/04 15:23:27;;;;;;;5.50;4.68;;;;;;;22.77;37.67;100091.59;5051572;28;20040;-70
2022/05/04 15:25:56;;;;;;;4.80;4.25;;;;;;;22.79;37.92;100097.59;5052031;28;20041;-70
2022/05/04 15:28:22;;;;;;;6.25;4.35;;;;;;;22.82;38.01;100099.78;5050770;28;20173;-70
2022/05/04 15:30:47;;;;;;;5.80;4.60;;;;;;;22.80;38.52;100113.63;5051755;28;20112;-71
2022/05/04 15:33:13;;;;;;;6.13;4.90;;;;;;;22.68;40.41;100110.22;5051428;28;20170;-71
2022/05/04 15:35:38;;;;;;;8.40;6.07;;;;;;;22.80;40.08;100107.38;5051811;28;20037;-71
2022/05/04 15:38:04;;;;;;;7.88;4.65;;;;;;;22.57;39.83;100113.94;5051959;28;20037;-73
2022/05/04 15:40:30;;;;;;;6.30;4.65;;;;;;;22.71;40.67;100115.16;5053091;28;20029;-75
2022/05/04 15:42:58;;;;;;;6.30;4.50;;;;;;;22.66;40.54;100115.09;5051570;28;20437;-76
2022/05/04 15:45:24;;;;;;;10.25;6.32;;;;;;;22.52;40.18;100114.69;5051953;28;20037;-76
2022/05/04 15:47:49;;;;;;;7.03;5.13;;;;;;;22.50;41.97;100116.84;5051764;28;20120;-75
2022/05/04 15:50:15;;;;;;;8.55;6.18;;;;;;;22.31;42.82;100127.22;5052097;28;20037;-75
2022/05/04 15:52:41;;;;;;;8.13;6.00;;;;;;;22.08;43.64;100128.25;5051620;28;20504;-73
2022/05/04 15:55:07;;;;;;;9.38;6.00;;;;;;;21.65;45.27;100129.03;5054083;28;20036;-77
2022/05/04 15:57:33;;;;;;;10.27;6.63;;;;;;;21.13;46.72;100137.38;5052229;28;20045;-75
2022/05/04 15:59:59;;;;;;;7.95;6.00;;;;;;;20.89;46.72;100141.28;5051855;28;20040;-73
2022/05/04 16:05:09;;;;;;;9.35;5.20;;;;;;;20.62;47.44;100146.47;5051973;28;20037;-74
2022/05/04 16:07:35;;;;;;;8.75;5.50;;;;;;;20.56;47.56;100153.66;5052204;28;20056;-76